createdAt,value
2022-11-15T00:00:22.727Z,11.60
2022-11-15T00:03:28.789Z,11.60
2022-11-15T00:06:19.389Z,11.50
2022-11-15T00:09:10.920Z,11.40
2022-11-15T00:12:01.399Z,11.40
2022-11-15T00:17:43.841Z,11.60
2022-11-15T00:20:35.613Z,11.60
2022-11-15T00:26:18.114Z,11.60
2022-11-15T00:29:09.133Z,11.60
2022-11-15T00:31:59.970Z,11.50
2022-11-15T00:34:50.485Z,11.40
2022-11-15T00:37:41.966Z,11.40
2022-11-15T00:40:32.555Z,11.30
2022-11-15T00:43:23.259Z,11.40
2022-11-15T00:46:13.973Z,11.40
2022-11-15T00:49:05.420Z,11.30
2022-11-15T00:51:55.980Z,11.30
2022-11-15T01:00:30.025Z,11.40
2022-11-15T01:03:21.719Z,11.40
2022-11-15T01:09:04.560Z,11.50
2022-11-15T01:11:55.068Z,11.70
2022-11-15T01:14:46.476Z,11.60
2022-11-15T01:17:37.176Z,11.60
2022-11-15T01:20:28.258Z,11.80
2022-11-15T01:23:19.228Z,12.10
2022-11-15T01:26:13.815Z,12.00
2022-11-15T01:29:05.072Z,12.10
2022-11-15T01:31:55.466Z,12.90
2022-11-15T01:34:49.599Z,13.50
2022-11-15T01:37:40.064Z,13.30
2022-11-15T01:40:31.440Z,12.80
2022-11-15T01:43:30.443Z,12.60
2022-11-15T01:46:36.307Z,12.50
2022-11-15T01:49:31.600Z,12.30
2022-11-15T01:52:25.379Z,12.30
2022-11-15T01:55:24.623Z,12.30
2022-11-15T01:58:14.850Z,12.30
2022-11-15T02:01:06.533Z,12.40
2022-11-15T02:04:03.394Z,12.30
2022-11-15T02:06:55.172Z,12.30
2022-11-15T02:09:47.261Z,12.30
2022-11-15T02:12:38.660Z,12.40
2022-11-15T02:15:41.963Z,12.40
2022-11-15T02:18:43.092Z,12.40
2022-11-15T02:21:49.976Z,12.40
2022-11-15T02:25:03.685Z,12.60
2022-11-15T02:28:30.655Z,12.80
2022-11-15T02:31:36.796Z,13.60
2022-11-15T02:34:55.837Z,13.80
2022-11-15T02:37:54.299Z,14.00
2022-11-15T02:41:03.226Z,14.10
2022-11-15T02:44:18.412Z,14.10
2022-11-15T02:47:13.539Z,14.00
2022-11-15T02:50:11.420Z,13.60
2022-11-15T02:55:56.560Z,13.20
2022-11-15T02:59:09.185Z,13.10
2022-11-15T03:02:49.632Z,12.90
2022-11-15T03:06:16.392Z,12.90
2022-11-15T03:09:19.254Z,12.90
2022-11-15T03:12:30.626Z,12.90
2022-11-15T03:15:39.591Z,12.80
2022-11-15T03:18:37.323Z,12.70
2022-11-15T03:21:31.342Z,12.70
2022-11-15T03:24:26.314Z,12.60
2022-11-15T03:27:22.953Z,13.30
2022-11-15T03:30:14.760Z,12.60
2022-11-15T03:33:07.917Z,12.60
2022-11-15T03:35:59.344Z,12.50
2022-11-15T03:38:51.182Z,12.40
2022-11-15T03:42:22.309Z,12.50
2022-11-15T03:45:30.670Z,12.50
2022-11-15T03:48:34.584Z,12.50
2022-11-15T03:54:18.138Z,12.50
2022-11-15T03:57:08.756Z,12.70
2022-11-15T04:00:00.375Z,12.60
2022-11-15T04:02:51.556Z,12.60
2022-11-15T04:05:42.323Z,12.50
2022-11-15T04:11:25.254Z,12.40
2022-11-15T04:14:16.116Z,12.30
2022-11-15T04:17:07.473Z,12.30
2022-11-15T04:20:16.847Z,12.20
2022-11-15T04:23:35.720Z,12.20
2022-11-15T04:35:38.917Z,12.20
2022-11-15T04:38:29.667Z,12.10
2022-11-15T04:41:20.759Z,12.00
2022-11-15T04:44:11.469Z,12.00
2022-11-15T04:47:03.846Z,12.00
2022-11-15T04:49:54.135Z,11.80
2022-11-15T04:52:53.241Z,11.70
2022-11-15T04:55:47.172Z,11.70
2022-11-15T04:58:39.175Z,11.70
2022-11-15T05:01:29.648Z,11.70
2022-11-15T05:04:21.144Z,11.60
2022-11-15T05:07:11.585Z,11.50
2022-11-15T05:10:03.133Z,11.40
2022-11-15T05:12:53.813Z,11.50
2022-11-15T05:15:45.223Z,11.50
2022-11-15T05:18:36.206Z,12.20
2022-11-15T05:21:27.698Z,11.80
2022-11-15T05:24:18.286Z,11.70
2022-11-15T05:27:09.497Z,11.50
2022-11-15T05:30:00.584Z,11.50
2022-11-15T05:32:52.066Z,11.40
2022-11-15T05:35:48.415Z,11.30
2022-11-15T05:38:39.613Z,11.30
2022-11-15T05:41:46.750Z,11.30
2022-11-15T05:44:41.960Z,11.20
2022-11-15T05:47:35.519Z,11.20
2022-11-15T05:50:26.849Z,11.20
2022-11-15T05:53:20.962Z,11.20
2022-11-15T05:56:13.263Z,11.20
2022-11-15T05:59:05.133Z,11.20
2022-11-15T06:01:56.603Z,11.20
2022-11-15T06:07:38.966Z,11.10
2022-11-15T06:10:29.624Z,11.00
2022-11-15T06:13:20.671Z,10.90
2022-11-15T06:19:03.579Z,10.90
2022-11-15T06:24:46.235Z,10.90
2022-11-15T06:27:37.282Z,10.90
2022-11-15T06:30:28.888Z,10.90
2022-11-15T06:33:19.713Z,11.00
2022-11-15T06:36:18.428Z,11.00
2022-11-15T06:47:47.996Z,11.10
2022-11-15T06:53:32.217Z,11.80
2022-11-15T06:56:23.325Z,11.60
2022-11-15T07:07:56.541Z,11.20
2022-11-15T07:13:38.799Z,11.10
2022-11-15T07:16:29.111Z,11.20
2022-11-15T07:19:20.138Z,11.10
2022-11-15T07:22:11.765Z,11.30
2022-11-15T07:25:02.889Z,11.20
2022-11-15T07:28:01.151Z,11.30
2022-11-15T07:30:52.610Z,11.30
2022-11-15T07:33:44.209Z,11.30
2022-11-15T07:36:36.423Z,11.40
2022-11-15T07:39:27.492Z,11.40
2022-11-15T07:42:36.545Z,11.40
2022-11-15T07:45:28.263Z,11.50
2022-11-15T07:48:19.070Z,11.40
2022-11-15T07:51:14.935Z,11.50
2022-11-15T07:54:06.356Z,11.40
2022-11-15T07:59:53.064Z,11.50
2022-11-15T08:02:44.681Z,11.60
2022-11-15T08:05:40.733Z,11.60
2022-11-15T08:08:32.259Z,11.80
2022-11-15T08:11:23.280Z,11.90
2022-11-15T08:19:57.314Z,11.80
2022-11-15T08:25:40.489Z,12.60
2022-11-15T08:31:22.941Z,12.00
2022-11-15T08:37:06.486Z,12.10
2022-11-15T08:42:49.447Z,12.10
2022-11-15T08:45:39.863Z,12.20
2022-11-15T08:48:31.428Z,12.20
2022-11-15T08:57:05.561Z,12.30
2022-11-15T08:59:56.712Z,12.40
2022-11-15T09:02:47.944Z,12.50
2022-11-15T09:08:47.046Z,12.60
2022-11-15T09:11:39.127Z,12.70
2022-11-15T09:20:16.672Z,12.90
2022-11-15T09:23:07.850Z,12.90
2022-11-15T09:26:03.813Z,12.90
2022-11-15T09:28:55.261Z,12.90
2022-11-15T09:31:45.990Z,12.80
2022-11-15T09:40:21.574Z,12.80
2022-11-15T09:43:35.606Z,12.70
2022-11-15T09:46:48.002Z,12.80
2022-11-15T09:49:43.795Z,13.00
2022-11-15T09:52:25.847Z,13.10
2022-11-15T09:54:58.223Z,13.00
2022-11-15T09:57:36.200Z,13.00
2022-11-15T10:03:26.996Z,13.20
2022-11-15T10:06:04.275Z,13.30
2022-11-15T10:09:19.970Z,13.40
2022-11-15T10:11:56.094Z,13.40
2022-11-15T10:14:31.179Z,13.60
2022-11-15T10:17:44.048Z,13.60
2022-11-15T10:20:30.208Z,13.80
2022-11-15T10:23:07.292Z,13.90
2022-11-15T10:28:22.181Z,13.70
2022-11-15T10:30:58.121Z,13.60
2022-11-15T10:33:40.357Z,13.50
2022-11-15T10:38:53.112Z,13.50
2022-11-15T10:41:27.918Z,11.80
2022-11-15T10:44:19.562Z,13.50
2022-11-15T10:46:58.035Z,13.50
2022-11-15T10:49:33.098Z,13.50
2022-11-15T10:52:20.785Z,13.40
2022-11-15T10:54:57.631Z,13.60
2022-11-15T10:57:37.331Z,13.60
2022-11-15T11:00:36.673Z,13.60
2022-11-15T11:03:35.966Z,13.60
2022-11-15T11:06:13.948Z,13.70
2022-11-15T11:09:00.606Z,13.70
2022-11-15T11:11:51.457Z,13.80
2022-11-15T11:14:33.933Z,13.80
2022-11-15T11:17:24.168Z,13.90
2022-11-15T11:20:22.001Z,13.90
2022-11-15T11:23:02.890Z,13.80
2022-11-15T11:26:00.160Z,13.80
2022-11-15T11:28:46.007Z,13.90
2022-11-15T11:34:37.228Z,14.20
2022-11-15T11:37:28.225Z,14.20
2022-11-15T11:40:40.970Z,14.30
2022-11-15T11:44:01.239Z,14.50
2022-11-15T11:47:00.678Z,14.60
2022-11-15T11:49:44.700Z,14.60
2022-11-15T11:52:28.018Z,14.80
2022-11-15T11:55:40.033Z,14.90
2022-11-15T11:58:35.842Z,15.30
2022-11-15T12:01:46.081Z,15.30
2022-11-15T12:04:39.200Z,15.20
2022-11-15T12:07:33.451Z,15.20
2022-11-15T12:10:22.433Z,15.10
2022-11-15T12:13:03.824Z,15.20
2022-11-15T12:16:09.224Z,15.10
2022-11-15T12:18:50.816Z,15.30
2022-11-15T12:21:49.216Z,15.20
2022-11-15T12:24:45.024Z,15.20
2022-11-15T12:27:40.048Z,15.10
2022-11-15T12:30:22.192Z,15.20
2022-11-15T12:33:02.537Z,15.20
2022-11-15T12:35:42.652Z,15.10
2022-11-15T12:39:00.765Z,15.10
2022-11-15T12:41:55.485Z,15.10
2022-11-15T12:44:37.497Z,15.10
2022-11-15T12:47:12.357Z,15.10
2022-11-15T12:49:46.935Z,15.00
2022-11-15T12:52:19.528Z,15.10
2022-11-15T12:54:58.831Z,15.10
2022-11-15T12:57:34.978Z,15.10
2022-11-15T13:00:28.712Z,14.90
2022-11-15T13:03:24.968Z,14.90
2022-11-15T13:06:01.012Z,14.90
2022-11-15T13:08:45.225Z,14.90
2022-11-15T13:11:45.184Z,14.70
2022-11-15T13:14:41.898Z,14.90
2022-11-15T13:17:35.214Z,15.00
2022-11-15T13:20:15.315Z,14.90
2022-11-15T13:23:17.103Z,14.60
2022-11-15T13:26:11.691Z,14.60
2022-11-15T13:28:52.248Z,14.60
2022-11-15T13:31:43.414Z,14.50
2022-11-15T13:34:52.176Z,14.50
2022-11-15T13:40:38.332Z,14.40
2022-11-15T13:43:23.859Z,14.30
2022-11-15T13:46:13.084Z,14.30
2022-11-15T13:48:52.961Z,14.30
2022-11-15T13:51:49.573Z,14.20
2022-11-15T13:54:35.851Z,14.20
2022-11-15T13:57:41.763Z,14.20
2022-11-15T14:00:35.772Z,14.20
2022-11-15T14:03:21.237Z,14.30
2022-11-15T14:06:17.605Z,14.30
2022-11-15T14:09:12.961Z,14.20
2022-11-15T14:11:57.293Z,14.40
2022-11-15T14:14:30.746Z,14.50
2022-11-15T14:19:40.470Z,14.50
2022-11-15T14:22:29.532Z,14.60
2022-11-15T14:25:29.629Z,14.60
2022-11-15T14:28:25.587Z,14.80
2022-11-15T14:30:59.910Z,14.80
2022-11-15T14:33:38.282Z,14.80
2022-11-15T14:36:20.561Z,16.10
2022-11-15T14:38:53.487Z,14.80
2022-11-15T14:41:27.491Z,14.70
2022-11-15T14:43:59.884Z,14.60
2022-11-15T14:49:04.789Z,14.50
2022-11-15T14:54:30.378Z,14.40
2022-11-15T14:57:03.404Z,14.40
2022-11-15T14:59:35.317Z,14.40
2022-11-15T15:02:22.490Z,14.40
2022-11-15T15:04:55.160Z,14.40
2022-11-15T15:10:32.423Z,14.40
2022-11-15T15:12:53.105Z,14.30
2022-11-15T15:15:31.039Z,14.30
2022-11-15T15:18:06.239Z,14.20
2022-11-15T15:20:41.096Z,14.20
2022-11-15T15:23:20.327Z,14.20
2022-11-15T15:28:29.981Z,14.10
2022-11-15T15:31:06.883Z,14.00
2022-11-15T15:36:14.688Z,14.10
2022-11-15T15:43:53.523Z,14.40
2022-11-15T15:46:26.481Z,14.10
2022-11-15T15:54:04.862Z,14.00
2022-11-15T15:56:36.751Z,14.00
2022-11-15T15:59:09.509Z,14.10
2022-11-15T16:01:41.850Z,14.10
2022-11-15T16:04:14.619Z,14.00
2022-11-15T16:09:41.026Z,14.00
2022-11-15T16:12:12.962Z,14.00
2022-11-15T16:14:45.765Z,13.90
2022-11-15T16:17:23.893Z,13.80
2022-11-15T16:25:22.432Z,13.60
2022-11-15T16:27:54.847Z,13.50
2022-11-15T16:30:27.437Z,13.40
2022-11-15T16:38:05.448Z,13.40
2022-11-15T16:40:38.283Z,13.30
2022-11-15T16:45:43.712Z,13.20
2022-11-15T16:48:25.898Z,13.20
2022-11-15T16:50:59.392Z,13.20
2022-11-15T17:01:26.246Z,13.00
2022-11-15T17:03:58.907Z,12.90
2022-11-15T17:06:30.781Z,12.90
2022-11-15T17:09:03.577Z,12.70
2022-11-15T17:11:35.864Z,12.80
2022-11-15T17:14:08.850Z,12.80
2022-11-15T17:19:18.245Z,12.80
2022-11-15T17:21:50.247Z,12.80
2022-11-15T17:24:24.355Z,14.10
2022-11-15T17:26:56.364Z,12.70
2022-11-15T17:32:03.217Z,12.70
2022-11-15T17:34:35.746Z,12.60
2022-11-15T17:37:07.665Z,12.50
2022-11-15T17:42:12.995Z,12.50
2022-11-15T17:44:45.754Z,12.50
2022-11-15T17:47:17.668Z,12.50
2022-11-15T17:49:50.408Z,12.50
2022-11-15T17:52:22.363Z,12.50
2022-11-15T17:57:27.398Z,12.40
2022-11-15T17:59:59.771Z,12.40
2022-11-15T18:05:05.468Z,12.40
2022-11-15T18:07:37.547Z,12.40
2022-11-15T18:15:15.484Z,12.40
2022-11-15T18:20:26.587Z,12.40
2022-11-15T18:23:01.657Z,12.30
2022-11-15T18:25:33.561Z,12.30
2022-11-15T18:28:06.456Z,12.30
2022-11-15T18:30:39.936Z,12.30
2022-11-15T18:33:12.285Z,12.30
2022-11-15T18:35:44.190Z,12.30
2022-11-15T18:40:49.337Z,12.20
2022-11-15T18:43:22.645Z,12.20
2022-11-15T18:45:55.043Z,12.20
2022-11-15T18:48:31.527Z,12.20
2022-11-15T18:51:15.478Z,12.10
2022-11-15T18:56:22.441Z,12.20
2022-11-15T18:59:00.251Z,12.10
2022-11-15T19:01:42.106Z,12.10
2022-11-15T19:04:18.879Z,12.10
2022-11-15T19:06:52.575Z,12.10
2022-11-15T19:09:32.040Z,12.10
2022-11-15T19:12:04.829Z,12.00
2022-11-15T19:14:37.688Z,12.00
2022-11-15T19:17:10.036Z,12.10
2022-11-15T19:19:43.954Z,12.10
2022-11-15T19:24:49.165Z,13.40
2022-11-15T19:32:28.767Z,12.30
2022-11-15T19:35:01.463Z,12.20
2022-11-15T19:37:35.319Z,12.20
2022-11-15T19:40:08.805Z,12.20
2022-11-15T19:42:41.174Z,12.20
2022-11-15T19:45:13.150Z,12.20
2022-11-15T19:47:45.913Z,12.10
2022-11-15T19:50:18.591Z,12.20
2022-11-15T20:00:29.687Z,11.80
2022-11-15T20:03:01.614Z,11.80
2022-11-15T20:05:34.445Z,11.70
2022-11-15T20:08:06.503Z,11.70
2022-11-15T20:13:12.529Z,11.80
2022-11-15T20:18:18.101Z,11.80
2022-11-15T20:20:51.386Z,11.80
2022-11-15T20:25:56.514Z,11.80
2022-11-15T20:28:29.356Z,11.80
2022-11-15T20:31:02.666Z,11.80
2022-11-15T20:33:35.389Z,11.70
2022-11-15T20:36:13.295Z,11.70
2022-11-15T20:38:46.821Z,11.70
2022-11-15T20:41:19.405Z,11.60
2022-11-15T20:43:51.730Z,11.60
2022-11-15T20:46:24.751Z,11.70
2022-11-15T20:48:56.662Z,11.60
2022-11-15T20:51:29.743Z,11.70
2022-11-15T20:54:02.508Z,11.70
2022-11-15T20:56:34.958Z,11.60
2022-11-15T20:59:07.326Z,11.70
2022-11-15T21:01:39.828Z,11.70
2022-11-15T21:04:11.758Z,11.70
2022-11-15T21:06:47.697Z,11.70
2022-11-15T21:09:40.263Z,11.70
2022-11-15T21:12:14.076Z,11.60
2022-11-15T21:14:49.040Z,11.60
2022-11-15T21:17:21.928Z,11.70
2022-11-15T21:19:53.921Z,11.70
2022-11-15T21:22:26.758Z,11.60
2022-11-15T21:24:59.860Z,11.60
2022-11-15T21:27:31.773Z,11.70
2022-11-15T21:30:05.337Z,11.60
2022-11-15T21:32:39.056Z,11.50
2022-11-15T21:35:12.071Z,11.60
2022-11-15T21:40:17.531Z,11.50
2022-11-15T21:45:22.660Z,11.50
2022-11-15T21:47:54.874Z,11.40
2022-11-15T21:53:00.377Z,11.50
2022-11-15T21:55:33.097Z,11.40
2022-11-15T21:58:05.599Z,11.40
2022-11-15T22:00:57.257Z,11.40
2022-11-15T22:03:29.951Z,11.40
2022-11-15T22:11:08.721Z,11.30
2022-11-15T22:13:41.817Z,11.30
2022-11-15T22:16:14.406Z,11.30
2022-11-15T22:21:19.814Z,11.20
2022-11-15T22:23:51.774Z,11.20
2022-11-15T22:26:24.561Z,11.20
2022-11-15T22:31:29.903Z,11.20
2022-11-15T22:34:01.807Z,11.20
2022-11-15T22:36:52.358Z,11.20
2022-11-15T22:39:26.987Z,11.20
2022-11-15T22:41:59.823Z,11.30
2022-11-15T22:44:31.737Z,11.20
2022-11-15T22:47:04.550Z,11.30
2022-11-15T22:49:36.469Z,11.20
2022-11-15T22:52:09.586Z,11.20
2022-11-15T22:54:41.523Z,11.30
2022-11-15T23:02:19.263Z,11.20
2022-11-15T23:10:19.500Z,11.20
2022-11-15T23:16:11.621Z,11.20
2022-11-15T23:18:43.967Z,11.20
2022-11-15T23:21:57.124Z,11.20
2022-11-15T23:24:30.860Z,11.30
2022-11-15T23:27:07.276Z,11.30
2022-11-15T23:29:58.525Z,11.30
2022-11-15T23:35:22.119Z,11.50
2022-11-15T23:37:54.429Z,11.60
2022-11-15T23:42:59.408Z,11.80
2022-11-15T23:45:32.230Z,11.80
2022-11-15T23:48:04.929Z,11.80
2022-11-15T23:50:37.541Z,11.80
2022-11-15T23:53:10.276Z,11.70
2022-11-15T23:55:42.728Z,11.70
